Latest Weather Observations for Taree Airport

IDN60801

Issued at 10:23 am EST Tuesday 26 May 2020 (issued every 10 minutes, with the page automatically refreshed every 10 minutes)

About weather observations | Map of weather stations | Latest weather observations for NSW | Other Formats
Station Details ID: 060141 Name: TAREE AIRPORT AWS Lat: -31.89 Lon: 152.51 Height: 8.0 m
Data from the previous 72 hours. | See also: Recent months at Taree Airport
Date/Time
EST
Temp
°C
App
Temp
°C
Dew
Point
°C
Rel
Hum
%
Delta-T
°C
Wind Press
QNH
hPa
Press
MSL
hPa
Rain since
9am
mm
Dir  Spd
km/h
Gust
km/h
Spd
kts
Gust
kts
26/10:00am 15.5 13.9 14.9 96 0.3 WSW 17 26 9 14 1019.0 1019.0 1.2
26/09:59am 15.6 14.0 15.0 96 0.3 WSW 17 26 9 14 1019.0 1019.0 1.2
26/09:42am 15.3 13.4 14.3 94 0.6 WSW 17 26 9 14 1019.0 1019.0 1.2
26/09:35am 15.4 13.4 13.9 91 0.8 WSW 17 26 9 14 1019.1 1019.1 0.8
26/09:30am 15.8 13.5 14.0 89 1.0 WSW 19 28 10 15 1019.0 1019.0 0.0
26/09:00am 15.9 13.5 14.3 90 0.9 SW 20 28 11 15 1018.9 1018.9 1.4
26/08:55am 15.7 12.5 14.2 91 0.9 SW 24 33 13 18 1019.0 1019.0 1.4
26/08:40am 15.7 12.2 13.4 86 1.3 SSW 24 33 13 18 1018.9 1018.9 1.4
26/08:30am 16.3 13.1 13.0 81 1.8 SW 22 32 12 17 1018.9 1018.9 1.2
26/08:00am 16.2 13.8 12.7 80 1.9 WSW 17 22 9 12 1018.3 1018.3 1.2
26/07:30am 15.5 13.5 12.6 83 1.6 W 15 20 8 11 1018.1 1018.1 1.2
26/07:00am 15.6 12.9 12.9 84 1.5 WSW 19 28 10 15 1018.2 1018.2 1.2
26/06:30am 15.3 12.9 12.6 84 1.5 WSW 17 24 9 13 1018.0 1018.0 1.2
26/06:00am 15.6 12.9 12.9 84 1.5 WSW 19 28 10 15 1017.9 1017.9 1.2
26/05:30am 15.1 12.7 12.8 86 1.3 WSW 17 24 9 13 1017.4 1017.4 1.2
26/05:00am 15.1 13.1 12.8 86 1.3 W 15 22 8 12 1016.8 1016.8 1.2
26/04:30am 15.0 13.0 12.7 86 1.3 WSW 15 19 8 10 1016.6 1016.6 1.2
26/04:00am 14.9 12.5 12.8 87 1.2 WSW 17 28 9 15 1016.4 1016.4 1.2
26/03:30am 14.6 12.5 12.5 87 1.1 WSW 15 22 8 12 1016.1 1016.1 1.2
26/03:00am 14.5 12.4 12.5 88 1.1 W 15 22 8 12 1016.2 1016.2 1.2
26/02:30am 14.5 12.5 12.7 89 1.0 W 15 26 8 14 1016.4 1016.4 1.2
26/02:00am 14.4 12.0 12.6 89 1.0 W 17 28 9 15 1016.6 1016.6 1.2
26/01:30am 14.4 11.4 12.4 88 1.1 WSW 20 30 11 16 1016.8 1016.8 1.2
26/01:00am 14.5 11.5 12.4 87 1.1 W 20 30 11 16 1016.7 1016.7 1.2
26/12:30am 14.3 11.8 12.3 88 1.1 W 17 26 9 14 1016.7 1016.7 1.2
26/12:00am 14.3 11.2 12.2 87 1.1 W 20 30 11 16 1016.7 1016.7 1.2
 
Date/Time
EST
Temp
°C
App
Temp
°C
Dew
Point
°C
Rel
Hum
%
Delta-T
°C
Wind Press
QNH
hPa
Press
MSL
hPa
Rain since
9am
mm
Dir  Spd
km/h
Gust
km/h
Spd
kts
Gust
kts
25/11:30pm 14.2 11.7 12.2 88 1.1 W 17 26 9 14 1016.6 1016.6 1.2
25/11:00pm 14.2 11.7 12.2 88 1.1 W 17 24 9 13 1016.8 1016.8 1.2
25/10:30pm 14.0 11.1 12.2 89 1.0 W 19 30 10 16 1016.5 1016.5 1.2
25/10:00pm 14.0 11.1 12.4 90 0.9 W 19 28 10 15 1016.5 1016.5 1.2
25/09:30pm 14.0 11.5 12.4 90 0.9 W 17 26 9 14 1016.3 1016.3 1.2
25/09:00pm 13.9 11.1 12.6 92 0.7 W 19 30 10 16 1016.4 1016.4 1.2
25/08:30pm 13.7 11.3 12.6 93 0.6 W 17 24 9 13 1016.3 1016.3 1.2
25/08:00pm 14.1 11.0 12.3 89 1.0 W 20 30 11 16 1016.0 1016.0 1.0
25/07:30pm 13.9 10.9 12.6 92 0.7 W 20 28 11 15 1015.9 1015.9 1.0
25/07:00pm 13.9 11.1 12.6 92 0.7 W 19 28 10 15 1015.8 1015.8 1.0
25/06:30pm 13.9 12.2 12.5 91 0.8 W 13 20 7 11 1015.6 1015.6 1.0
25/06:00pm 13.9 11.7 12.1 89 1.0 W 15 19 8 10 1015.4 1015.4 0.8
25/05:30pm 14.3 11.6 11.8 85 1.3 WSW 17 28 9 15 1015.1 1015.1 0.6
25/05:00pm 14.9 11.8 11.5 80 1.8 W 19 30 10 16 1014.8 1014.8 0.2
25/04:30pm 14.9 11.6 11.5 80 1.8 W 20 32 11 17 1014.6 1014.6 0.2
25/04:00pm 15.1 11.4 11.5 79 1.9 WSW 22 32 12 17 1014.5 1014.5 0.2
25/03:30pm 15.5 11.7 11.3 76 2.3 WSW 22 35 12 19 1014.3 1014.3 0.2
25/03:00pm 15.4 11.8 11.8 79 1.9 WSW 22 37 12 20 1014.3 1014.3 0.2
25/02:30pm 15.8 11.7 11.4 75 2.4 WSW 24 39 13 21 1014.2 1014.2 0.0
25/02:00pm 17.0 13.4 10.6 66 3.4 WSW 20 33 11 18 1014.1 1014.1 0.0
25/01:30pm 17.5 12.4 10.6 64 3.7 WSW 28 37 15 20 1014.0 1014.0 0.0
25/01:00pm 17.8 13.3 10.2 61 4.0 WSW 24 43 13 23 1013.9 1013.9 0.0
25/12:30pm 17.0 12.5 9.9 63 3.7 WSW 24 39 13 21 1014.0 1014.0 0.0
25/12:00pm 16.6 11.7 9.8 64 3.6 WSW 26 39 14 21 1014.1 1014.1 0.0
25/11:30am 17.3 12.5 10.2 63 3.8 WSW 26 41 14 22 1014.3 1014.3 0.0
25/11:00am 16.9 11.5 9.6 62 3.8 WSW 28 41 15 22 1014.5 1014.5 0.0
25/10:30am 17.2 11.4 9.6 61 4.0 WSW 30 44 16 24 1014.6 1014.6 0.0
25/10:00am 16.5 11.4 9.2 62 3.8 WSW 26 37 14 20 1014.7 1014.7 0.0
25/09:30am 16.6 11.2 9.5 63 3.7 WSW 28 39 15 21 1014.7 1014.7 0.0
25/09:00am 15.6 10.8 8.8 64 3.5 WSW 24 39 13 21 1014.7 1014.7 0.0
25/08:30am 15.1 10.2 8.6 65 3.3 W 24 33 13 18 1014.5 1014.5 0.0
25/08:00am 14.4 9.5 8.6 68 2.9 W 24 33 13 18 1014.6 1014.6 0.0
25/07:30am 13.7 9.1 8.1 69 2.8 WSW 22 33 12 18 1014.5 1014.5 0.0
25/07:00am 13.4 8.4 8.0 70 2.7 W 24 37 13 20 1014.2 1014.2 0.0
25/06:30am 13.0 8.8 8.1 72 2.4 W 20 32 11 17 1014.1 1014.1 0.0
25/06:00am 12.9 8.7 8.2 73 2.3 W 20 32 11 17 1013.7 1013.7 0.0
25/05:30am 12.9 8.6 8.0 72 2.4 W 20 32 11 17 1013.4 1013.4 0.0
25/05:00am 13.3 9.1 8.2 71 2.5 W 20 30 11 16 1013.0 1013.0 0.0
25/04:30am 13.4 9.1 8.0 70 2.7 WSW 20 32 11 17 1012.7 1012.7 0.0
25/04:00am 13.8 9.2 8.0 68 2.9 WSW 22 33 12 18 1012.5 1012.5 0.0
25/03:30am 14.1 9.4 7.9 66 3.1 WSW 22 33 12 18 1012.5 1012.5 0.0
25/03:00am 14.2 9.0 7.3 63 3.4 WSW 24 33 13 18 1012.5 1012.5 0.0
25/02:30am 14.5 10.1 7.3 62 3.5 WSW 20 32 11 17 1012.4 1012.4 0.0
25/02:00am 14.8 10.0 7.4 61 3.7 WSW 22 37 12 20 1012.4 1012.4 0.0
25/01:30am 14.8 9.2 7.1 60 3.8 WSW 26 50 14 27 1012.7 1012.7 0.0
25/01:23am 15.0 9.0 7.1 59 3.9 WSW 28 50 15 27 1012.7 1012.7 0.0
25/01:00am 15.2 9.1 6.7 57 4.1 WSW 28 39 15 21 1012.9 1012.9 0.0
25/12:30am 15.3 10.8 7.1 58 4.0 WSW 20 33 11 18 1013.3 1013.3 0.0
25/12:00am 15.4 10.5 6.9 57 4.2 WSW 22 35 12 19 1013.1 1013.1 0.0
 
Date/Time
EST
Temp
°C
App
Temp
°C
Dew
Point
°C
Rel
Hum
%
Delta-T
°C
Wind Press
QNH
hPa
Press
MSL
hPa
Rain since
9am
mm
Dir  Spd
km/h
Gust
km/h
Spd
kts
Gust
kts
24/11:30pm 15.5 9.5 7.0 57 4.2 WSW 28 39 15 21 1013.0 1013.0 0.0
24/11:17pm 15.6 9.7 7.4 58 4.1 WSW 28 46 15 25 1012.9 1012.9 0.0
24/11:00pm 15.7 10.2 7.5 58 4.1 WSW 26 43 14 23 1013.0 1013.0 0.0
24/10:30pm 15.8 9.9 7.3 57 4.2 WSW 28 43 15 23 1012.9 1012.9 0.0
24/10:00pm 15.4 12.1 7.9 61 3.8 WSW 15 26 8 14 1012.9 1012.9 0.0
24/09:30pm 14.9 11.8 8.8 67 3.1 W 15 28 8 15 1012.8 1012.8 0.0
24/09:00pm 14.8 10.8 9.2 69 2.9 WSW 20 35 11 19 1012.7 1012.7 0.0
24/08:30pm 14.8 9.4 9.4 70 2.8 WSW 28 39 15 21 1012.4 1012.4 0.0
24/08:18pm 14.9 9.5 9.5 70 2.8 WSW 28 48 15 26 1012.3 1012.3 0.0
24/08:00pm 15.0 10.4 9.8 71 2.7 WSW 24 39 13 21 1012.3 1012.3 0.0
24/07:30pm 15.0 9.4 10.0 72 2.6 WSW 30 48 16 26 1011.9 1011.9 0.0
24/07:27pm 15.0 9.4 10.0 72 2.6 WSW 30 48 16 26 1011.9 1011.9 0.0
24/07:00pm 14.7 10.3 10.5 76 2.2 WSW 24 41 13 22 1011.7 1011.7 0.0
24/06:30pm 14.9 9.8 10.5 75 2.3 SW 28 41 15 22 1011.3 1011.3 0.0
24/06:13pm 15.3 9.7 10.3 72 2.6 WSW 30 48 16 26 1011.1 1011.1 0.0
24/06:00pm 15.3 10.8 10.1 71 2.7 WSW 24 43 13 23 1011.0 1011.0 0.0
24/05:30pm 15.5 10.3 10.1 70 2.8 WSW 28 54 15 29 1010.4 1010.4 0.0
24/05:00pm 15.5 11.1 10.3 71 2.7 WSW 24 37 13 20 1010.2 1010.2 0.0
24/04:30pm 15.6 11.1 10.2 70 2.8 WSW 24 41 13 22 1009.9 1009.9 0.0
24/04:00pm 15.8 10.6 10.3 70 2.9 SW 28 39 15 21 1009.3 1009.3 0.0
24/03:37pm 16.0 10.8 10.3 69 3.0 WSW 28 48 15 26 1009.2 1009.2 0.0
24/03:30pm 16.0 10.8 10.3 69 3.0 WSW 28 41 15 22 1009.1 1009.1 0.0
24/03:18pm 16.2 11.0 10.1 67 3.2 WSW 28 46 15 25 1008.9 1008.9 0.0
24/03:00pm 16.6 10.4 10.0 65 3.5 WSW 33 50 18 27 1008.7 1008.7 0.0
24/02:35pm 16.4 10.8 10.3 67 3.2 SW 30 48 16 26 1008.7 1008.7 0.0
24/02:30pm 16.6 11.1 10.5 67 3.2 SW 30 41 16 22 1008.7 1008.7 0.0
24/02:10pm 17.0 11.4 10.1 64 3.6 WSW 30 48 16 26 1008.6 1008.6 0.0
24/02:00pm 16.7 10.6 9.9 64 3.6 SW 32 41 17 22 1008.5 1008.5 0.0
24/01:30pm 16.4 11.1 10.0 66 3.4 WSW 28 41 15 22 1008.6 1008.6 0.0
24/01:00pm 16.9 11.7 10.1 64 3.6 WSW 28 48 15 26 1008.7 1008.7 0.0
24/12:50pm 17.0 11.7 9.9 63 3.7 WSW 28 46 15 25 1008.6 1008.6 0.0
24/12:30pm 16.9 11.3 10.1 64 3.6 WSW 30 46 16 25 1008.7 1008.7 0.0
24/12:24pm 16.7 11.4 9.9 64 3.6 WSW 28 46 15 25 1008.7 1008.7 0.0
24/12:00pm 16.7 11.8 10.1 65 3.5 WSW 26 41 14 22 1009.1 1009.1 0.0
24/11:30am 17.0 11.7 9.9 63 3.7 WSW 28 50 15 27 1009.0 1009.0 0.0
24/11:22am 16.6 10.8 9.5 63 3.7 WSW 30 48 16 26 1009.1 1009.1 0.0
24/11:00am 16.9 12.3 9.8 63 3.7 WSW 24 37 13 20 1009.2 1009.2 0.0
24/10:30am 16.9 12.0 9.8 63 3.7 WSW 26 39 14 21 1009.3 1009.3 0.0
24/10:00am 16.5 11.5 9.4 63 3.7 WSW 26 37 14 20 1009.4 1009.4 0.0
24/09:30am 15.9 11.7 9.6 66 3.3 WSW 22 35 12 19 1009.4 1009.4 0.0
24/09:00am 15.5 10.8 9.4 67 3.2 W 24 37 13 20 1009.3 1009.3 0.0
24/08:30am 15.3 10.6 9.4 68 3.0 W 24 37 13 20 1009.1 1009.1 0.0
24/08:00am 15.2 10.8 9.1 67 3.1 W 22 33 12 18 1009.0 1009.0 0.0
24/07:30am 15.0 11.0 8.9 67 3.1 W 20 28 11 15 1008.9 1008.9 0.0
24/07:00am 14.6 10.5 8.8 68 2.9 W 20 28 11 15 1008.6 1008.6 0.0
24/06:30am 14.5 10.4 8.7 68 2.9 W 20 30 11 16 1008.3 1008.3 0.0
24/06:00am 14.3 10.2 8.5 68 2.9 W 20 32 11 17 1007.9 1007.9 0.0
24/05:30am 14.3 10.4 8.5 68 2.9 W 19 30 10 16 1007.7 1007.7 0.0
24/05:00am 14.0 10.1 8.6 70 2.7 W 19 32 10 17 1007.7 1007.7 0.0
24/04:30am 14.4 10.4 8.1 66 3.1 W 19 26 10 14 1007.5 1007.5 0.0
24/04:00am 14.4 10.3 7.9 65 3.2 W 19 30 10 16 1007.6 1007.6 0.0
24/03:30am 14.4 10.7 7.9 65 3.2 W 17 26 9 14 1007.6 1007.6 0.0
24/03:00am 14.3 10.9 7.6 64 3.3 WNW 15 24 8 13 1007.8 1007.8 0.0
24/02:30am 14.2 10.4 7.5 64 3.3 WNW 17 24 9 13 1007.8 1007.8 0.0
24/02:00am 14.2 10.4 7.5 64 3.3 WNW 17 30 9 16 1008.0 1008.0 0.0
24/01:30am 13.9 10.8 7.4 65 3.2 WNW 13 19 7 10 1008.2 1008.2 0.0
24/01:00am 14.4 10.5 7.2 62 3.5 W 17 20 9 11 1008.4 1008.4 0.0
24/12:30am 14.6 10.7 7.2 61 3.6 W 17 26 9 14 1008.4 1008.4 0.0
24/12:00am 14.1 10.6 7.2 63 3.4 WNW 15 20 8 11 1008.5 1008.5 0.0
 
Date/Time
EST
Temp
°C
App
Temp
°C
Dew
Point
°C
Rel
Hum
%
Delta-T
°C
Wind Press
QNH
hPa
Press
MSL
hPa
Rain since
9am
mm
Dir  Spd
km/h
Gust
km/h
Spd
kts
Gust
kts
23/11:30pm 14.1 10.8 6.5 60 3.7 WNW 13 17 7 9 1008.5 1008.5 0.0
23/11:00pm 13.7 10.4 6.3 61 3.5 WNW 13 19 7 10 1008.6 1008.6 0.0
23/10:30pm 13.3 10.0 6.4 63 3.3 WNW 13 17 7 9 1008.6 1008.6 0.0
23/10:00pm 13.3 9.6 6.4 63 3.3 W 15 20 8 11 1008.3 1008.3 0.0
23/09:30pm 13.2 8.8 6.5 64 3.2 W 19 26 10 14 1008.3 1008.3 0.0
23/09:00pm 13.0 9.8 6.8 66 3.0 W 13 20 7 11 1008.3 1008.3 0.0
23/08:30pm 13.2 9.2 6.8 65 3.1 W 17 24 9 13 1008.6 1008.6 0.0
23/08:00pm 13.8 9.7 6.4 61 3.6 WNW 17 22 9 12 1008.6 1008.6 0.0
23/07:30pm 14.1 10.8 6.2 59 3.8 W 13 19 7 10 1008.3 1008.3 0.0
23/07:00pm 14.4 10.7 6.3 58 3.9 W 15 20 8 11 1008.7 1008.7 0.0
23/06:30pm 14.7 10.6 6.3 57 4.0 W 17 22 9 12 1008.7 1008.7 0.0
23/06:00pm 14.8 11.1 6.4 57 4.1 W 15 26 8 14 1008.4 1008.4 0.0
23/05:30pm 15.0 10.4 6.3 56 4.2 WNW 20 32 11 17 1007.7 1007.7 0.0
23/05:00pm 15.4 10.7 5.9 53 4.6 W 20 30 11 16 1007.3 1007.3 0.0
23/04:30pm 15.7 11.6 6.4 54 4.5 WNW 17 24 9 13 1007.1 1007.1 0.0
23/04:00pm 16.2 11.8 6.6 53 4.7 WNW 19 28 10 15 1006.8 1006.8 0.0
23/03:30pm 16.8 12.9 6.9 52 4.9 WNW 17 26 9 14 1006.5 1006.5 0.0
23/03:00pm 17.4 13.0 7.5 52 5.0 W 20 28 11 15 1006.2 1006.2 0.0
23/02:30pm 18.4 14.4 8.1 51 5.3 W 19 30 10 16 1006.0 1006.0 0.0
23/02:00pm 18.3 14.0 8.0 51 5.3 W 20 32 11 17 1006.2 1006.2 0.0
23/01:30pm 18.2 13.8 7.6 50 5.4 W 20 33 11 18 1006.4 1006.4 0.0
23/01:00pm 18.3 13.6 7.7 50 5.4 W 22 33 12 18 1006.7 1006.7 0.0
23/12:30pm 18.9 14.8 7.7 48 5.7 W 19 28 10 15 1006.8 1006.8 0.0
23/12:00pm 18.0 12.3 6.8 48 5.6 W 26 35 14 19 1007.0 1007.0 0.0
23/11:30am 17.7 12.4 6.9 49 5.4 W 24 39 13 21 1008.0 1008.0 0.0
23/11:00am 17.7 12.4 6.6 48 5.5 W 24 35 13 19 1008.2 1008.2 0.0
23/10:30am 16.9 11.8 5.8 48 5.4 WNW 22 32 12 17 1008.4 1008.4 0.0

Other formats

Comma delimited format used in spreadsheet applications
http://www.bom.gov.au/fwo/IDN60801/IDN60801.95784.axf

JavaScript Object Notation format (JSON) in row-major order
http://www.bom.gov.au/fwo/IDN60801/IDN60801.95784.json

Data quality

Most of these data are generated automatically and are frequently updated. Quality checks on data are not normally performed. It is possible for incorrect values to appear. Refer to information at About Latest Weather Observations and please check the disclaimer before using these data.